Time;durP1;ratioP1;P1;durP2;ratioP2;P2;SDS_P1;SDS_P2;PMS_P1;PMS_P2;Temp;Humidity;BMP_temperature;BMP_pressure;BME280_temperature;BME280_humidity;BME280_pressure;Samples;Min_cycle;Max_cycle;Signal;HPM_P1;HPM_P2
2023/08/20 19:58:46;;;;;;;14.57;13.27;;;;;;;;;;6318038;22;20027;-93
2023/08/20 20:01:11;;;;;;;14.18;12.98;;;;;;;;;;6325585;22;20315;-89
2023/08/20 20:03:37;;;;;;;13.75;12.63;;;;;;;;;;6334312;22;20029;-89
2023/08/20 20:06:02;;;;;;;13.30;11.95;;;;;;;;;;6307354;22;20021;-90
2023/08/20 20:08:28;;;;;;;15.68;14.20;;;;;;;;;;6308288;22;19987;-90
2023/08/20 20:10:53;;;;;;;13.85;12.55;;;;;;;;;;6304490;22;20035;-91
2023/08/20 20:13:19;;;;;;;14.38;13.15;;;;;;;;;;6291931;22;20026;-92
2023/08/20 20:15:44;;;;;;;13.05;11.85;;;;;;;;;;6287485;22;20014;-92
2023/08/20 20:18:10;;;;;;;13.07;11.88;;;;;;;;;;6286041;22;20063;-93
2023/08/20 20:20:36;;;;;;;13.70;12.40;;;;;;;;;;6285374;22;20093;-94
2023/08/20 20:23:02;;;;;;;13.43;12.23;;;;;;;;;;6282865;22;20003;-93
2023/08/20 20:25:30;;;;;;;14.50;13.20;;;;;;;;;;6284867;22;20008;-92
2023/08/20 20:27:56;;;;;;;14.02;12.75;;;;;;;;;;6284036;22;20007;-92
2023/08/20 20:30:22;;;;;;;14.85;13.30;;;;;;;;;;6283635;22;20003;-93
2023/08/20 20:32:47;;;;;;;13.50;12.30;;;;;;;;;;6283756;22;20022;-92
2023/08/20 20:35:12;;;;;;;14.35;13.05;;;;;;;;;;6283498;22;20014;-92
2023/08/20 20:37:38;;;;;;;14.35;12.95;;;;;;;;;;6284651;22;20381;-93
2023/08/20 20:40:10;;;;;;;13.77;12.57;;;;;;;;;;6284221;22;20035;-93
2023/08/20 20:42:36;;;;;;;14.10;12.90;;;;;;;;;;6283750;22;20008;-92
2023/08/20 20:45:02;;;;;;;14.68;13.35;;;;;;;;;;6283813;22;20326;-93
2023/08/20 20:47:28;;;;;;;14.20;13.00;;;;;;;;;;6284170;22;20004;-92
2023/08/20 20:49:53;;;;;;;13.80;12.60;;;;;;;;;;6283038;22;20010;-93
2023/08/20 20:52:19;;;;;;;13.73;12.43;;;;;;;;;;6283542;22;19999;-91
2023/08/20 20:54:44;;;;;;;13.70;12.57;;;;;;;;;;6283589;22;20422;-91
2023/08/20 20:57:10;;;;;;;13.27;12.07;;;;;;;;;;6283156;22;20011;-91
2023/08/20 20:59:36;;;;;;;14.60;13.30;;;;;;;;;;6282895;22;20430;-93
2023/08/20 21:02:01;;;;;;;13.85;12.50;;;;;;;;;;6283908;22;20334;-92
2023/08/20 21:04:28;;;;;;;13.75;12.52;;;;;;;;;;6283282;22;20003;-94
2023/08/20 21:06:57;;;;;;;14.23;13.02;;;;;;;;;;6284110;22;20003;-93
2023/08/20 21:09:23;;;;;;;;;;;;;;;;;;6293963;22;20414;-94
2023/08/20 21:11:48;;;;;;;14.05;12.85;;;;;;;;;;6295174;22;19907;-96
2023/08/20 21:14:14;;;;;;;13.88;12.50;;;;;;;;;;6295203;22;20007;-96
2023/08/20 21:16:39;;;;;;;14.00;12.70;;;;;;;;;;6293636;22;20445;-95
2023/08/20 21:19:05;;;;;;;14.60;13.30;;;;;;;;;;6294599;22;20053;-94
2023/08/20 21:21:30;;;;;;;13.93;12.57;;;;;;;;;;6297746;22;20015;-96
2023/08/20 21:23:56;;;;;;;15.00;13.63;;;;;;;;;;6297980;22;20082;-95
2023/08/20 21:26:23;;;;;;;15.23;13.73;;;;;;;;;;6293708;22;20010;-96
2023/08/20 21:28:49;;;;;;;13.63;12.43;;;;;;;;;;6295232;22;20033;-96
2023/08/20 21:31:14;;;;;;;14.13;12.82;;;;;;;;;;6293177;22;20007;-96
2023/08/20 21:33:40;;;;;;;13.57;12.38;;;;;;;;;;6292547;22;20060;-96
2023/08/20 21:36:05;;;;;;;13.45;12.20;;;;;;;;;;6296675;22;20006;-96
2023/08/20 21:38:31;;;;;;;14.13;12.90;;;;;;;;;;6297431;22;20004;-96
2023/08/20 21:40:56;;;;;;;14.68;13.32;;;;;;;;;;6275830;22;20007;-95
2023/08/20 21:43:23;;;;;;;15.05;13.45;;;;;;;;;;6300714;22;20082;-96
2023/08/20 21:45:51;;;;;;;13.75;12.45;;;;;;;;;;6298053;22;20007;-94
2023/08/20 21:48:16;;;;;;;13.85;12.65;;;;;;;;;;6296649;22;20029;-95
2023/08/20 21:50:43;;;;;;;14.15;12.75;;;;;;;;;;6288090;22;20039;-94
2023/08/20 21:53:09;;;;;;;14.60;13.15;;;;;;;;;;6286138;22;20009;-94
2023/08/20 21:55:34;;;;;;;14.50;13.20;;;;;;;;;;6285561;22;20086;-95
2023/08/20 21:58:00;;;;;;;13.70;12.50;;;;;;;;;;6278041;22;20043;-94
2023/08/20 22:00:25;;;;;;;15.00;13.70;;;;;;;;;;6278282;22;20007;-94
2023/08/20 22:02:51;;;;;;;14.55;13.25;;;;;;;;;;6279232;22;20035;-95
2023/08/20 22:05:19;;;;;;;15.10;12.95;;;;;;;;;;6280054;22;20008;-92
